Time;durP1;ratioP1;P1;durP2;ratioP2;P2;SDS_P1;SDS_P2;PMS_P1;PMS_P2;Temp;Humidity;BMP_temperature;BMP_pressure;BME280_temperature;BME280_humidity;BME280_pressure;Samples;Min_cycle;Max_cycle;Signal;HPM_P1;HPM_P2
2022/02/28 00:02:01;;;;;;;;;;;13.40;65.10;;;;;;4977868;28;19906;-63
2022/02/28 00:04:26;;;;;;;;;;;13.40;65.10;;;;;;4977867;28;19917;-64
2022/02/28 00:06:53;;;;;;;;;;;13.40;65.10;;;;;;4977810;28;19917;-63
2022/02/28 00:09:19;;;;;;;;;;;13.40;65.20;;;;;;4977713;28;19914;-65
2022/02/28 00:11:44;;;;;;;;;;;13.40;64.90;;;;;;4977700;28;19909;-64
2022/02/28 00:14:10;;;;;;;;;;;13.40;65.10;;;;;;4979823;28;20008;-64
2022/02/28 00:16:35;;;;;;;;;;;13.40;65.10;;;;;;4979891;28;19909;-64
2022/02/28 00:19:01;;;;;;;;;;;13.40;64.90;;;;;;4980993;28;20019;-63
2022/02/28 00:21:27;;;;;;;;;;;13.40;65.10;;;;;;4980995;28;19967;-64
2022/02/28 00:23:52;;;;;;;;;;;13.40;65.10;;;;;;4980933;28;19910;-64
2022/02/28 00:26:18;;;;;;;;;;;13.40;64.90;;;;;;4980946;28;19910;-64
2022/02/28 00:28:43;;;;;;;;;;;13.40;65.10;;;;;;4980815;28;20151;-64
2022/02/28 00:31:09;;;;;;;;;;;13.40;65.00;;;;;;4980890;28;19930;-63
2022/02/28 00:33:35;;;;;;;;;;;13.40;65.10;;;;;;4980765;28;19948;-64
2022/02/28 00:36:00;;;;;;;;;;;13.40;65.20;;;;;;4980684;28;19910;-64
2022/02/28 00:38:26;;;;;;;;;;;13.40;65.10;;;;;;4980767;28;19977;-64
2022/02/28 00:40:51;;;;;;;;;;;13.40;65.00;;;;;;4980755;28;19956;-64
2022/02/28 00:43:17;;;;;;;;;;;13.40;65.10;;;;;;4980539;28;20229;-64
2022/02/28 00:45:43;;;;;;;;;;;13.40;65.20;;;;;;4980516;28;19925;-64
2022/02/28 00:48:09;;;;;;;;;;;13.40;65.20;;;;;;4980505;28;19906;-65
2022/02/28 00:50:35;;;;;;;;;;;13.40;65.20;;;;;;4980555;28;19910;-64
2022/02/28 00:53:01;;;;;;;;;;;13.30;65.00;;;;;;4980385;28;19908;-64
2022/02/28 00:55:26;;;;;;;;;;;13.40;65.20;;;;;;4980490;28;19910;-64
2022/02/28 00:57:52;;;;;;;;;;;13.30;65.10;;;;;;4980465;28;20168;-64
2022/02/28 01:00:18;;;;;;;;;;;13.40;65.20;;;;;;4980402;28;19917;-66
2022/02/28 01:02:45;;;;;;;;;;;13.40;65.10;;;;;;4980340;28;19902;-63
2022/02/28 01:05:11;;;;;;;;;;;13.30;65.10;;;;;;4980353;28;19902;-63
2022/02/28 01:07:37;;;;;;;;;;;13.40;65.20;;;;;;4980296;28;20031;-63
2022/02/28 01:10:04;;;;;;;;;;;13.30;65.10;;;;;;4980268;28;20222;-63
2022/02/28 01:12:29;;;;;;;;;;;13.30;65.10;;;;;;4980257;28;19902;-63
2022/02/28 01:14:55;;;;;;;;;;;13.30;65.10;;;;;;4980213;28;20019;-63
2022/02/28 01:17:21;;;;;;;;;;;13.30;65.10;;;;;;4980226;28;19909;-64
2022/02/28 01:19:47;;;;;;;;;;;13.30;65.10;;;;;;4980135;28;20091;-64
2022/02/28 01:22:12;;;;;;;;;;;13.30;65.10;;;;;;4980137;28;19956;-64
2022/02/28 01:24:38;;;;;;;;;;;13.30;65.10;;;;;;4980136;28;19940;-65
2022/02/28 01:27:04;;;;;;;;;;;13.30;65.10;;;;;;4980065;28;19902;-64
2022/02/28 01:29:30;;;;;;;;;;;13.30;65.10;;;;;;4979921;28;19945;-63
2022/02/28 01:31:55;;;;;;;;;;;13.30;65.10;;;;;;4980011;28;19909;-64
2022/02/28 01:34:21;;;;;;;;;;;13.30;65.10;;;;;;4979916;28;19917;-63
2022/02/28 01:36:47;;;;;;;;;;;13.30;65.10;;;;;;4979999;28;19910;-64
2022/02/28 01:39:12;;;;;;;;;;;13.30;65.10;;;;;;4979864;28;20000;-64
2022/02/28 01:41:38;;;;;;;;;;;13.30;65.10;;;;;;4979783;28;20110;-64
2022/02/28 01:44:05;;;;;;;;;;;13.30;65.10;;;;;;4979820;28;19913;-64
2022/02/28 01:46:30;;;;;;;;;;;13.30;65.10;;;;;;4979524;28;20003;-64
2022/02/28 01:48:56;;;;;;;;;;;13.30;65.10;;;;;;4979714;28;19918;-64
2022/02/28 01:51:21;;;;;;;;;;;13.30;65.00;;;;;;4979713;28;19916;-65
2022/02/28 01:53:47;;;;;;;;;;;13.30;65.00;;;;;;4979739;28;19909;-64
2022/02/28 01:56:13;;;;;;;;;;;13.30;65.10;;;;;;4979589;28;19925;-64
2022/02/28 01:58:39;;;;;;;;;;;13.30;65.10;;;;;;4979571;28;19937;-65
2022/02/28 02:01:05;;;;;;;;;;;13.20;65.00;;;;;;4979609;28;19936;-63
2022/02/28 02:03:31;;;;;;;;;;;13.30;65.10;;;;;;4979526;28;19910;-64
2022/02/28 02:05:57;;;;;;;;;;;13.30;65.10;;;;;;4979549;28;20256;-63
2022/02/28 02:08:22;;;;;;;;;;;13.20;65.10;;;;;;4979349;28;19914;-64
2022/02/28 02:10:48;;;;;;;;;;;13.20;65.00;;;;;;4979461;28;20198;-64
2022/02/28 02:13:14;;;;;;;;;;;13.20;65.10;;;;;;4979439;28;19977;-64
2022/02/28 02:15:40;;;;;;;;;;;13.30;65.00;;;;;;4979361;28;19902;-63
2022/02/28 02:18:05;;;;;;;;;;;13.30;65.10;;;;;;4979342;28;19909;-64
2022/02/28 02:20:32;;;;;;;;;;;13.30;65.10;;;;;;4979290;28;19910;-64
2022/02/28 02:22:58;;;;;;;;;;;13.20;65.00;;;;;;4979291;28;19973;-64
2022/02/28 02:25:24;;;;;;;;;;;13.20;65.00;;;;;;4979267;28;19902;-64
2022/02/28 02:27:50;;;;;;;;;;;13.20;65.10;;;;;;4977877;28;19914;-64
2022/02/28 02:30:15;;;;;;;;;;;13.20;65.00;;;;;;4977593;28;19969;-64
2022/02/28 02:32:41;;;;;;;;;;;13.20;65.00;;;;;;4979126;28;19910;-64
2022/02/28 02:35:07;;;;;;;;;;;13.20;65.00;;;;;;4979041;28;20186;-64
2022/02/28 02:37:33;;;;;;;;;;;13.20;65.00;;;;;;4978485;28;19937;-64
2022/02/28 02:39:59;;;;;;;;;;;13.20;65.00;;;;;;4978996;28;20213;-63
2022/02/28 02:42:24;;;;;;;;;;;13.20;65.00;;;;;;4979100;28;19910;-63
2022/02/28 02:44:50;;;;;;;;;;;13.20;65.00;;;;;;4978885;28;19931;-64
2022/02/28 02:47:15;;;;;;;;;;;13.20;64.90;;;;;;4978833;28;19921;-64
2022/02/28 02:49:41;;;;;;;;;;;13.20;65.00;;;;;;4978757;28;19921;-64
2022/02/28 02:52:07;;;;;;;;;;;13.20;65.00;;;;;;4978883;28;19906;-65
2022/02/28 02:54:32;;;;;;;;;;;13.20;65.00;;;;;;4978766;28;20457;-64
2022/02/28 02:56:58;;;;;;;;;;;13.20;65.10;;;;;;4978818;28;19945;-64
2022/02/28 02:59:24;;;;;;;;;;;13.20;65.00;;;;;;4978709;28;19902;-64
2022/02/28 03:01:49;;;;;;;;;;;13.20;65.00;;;;;;4977585;28;19913;-64
2022/02/28 03:04:15;;;;;;;;;;;13.20;65.00;;;;;;4978670;28;19910;-64
2022/02/28 03:06:41;;;;;;;;;;;13.20;65.10;;;;;;4978667;28;20358;-64
2022/02/28 03:09:10;;;;;;;;;;;13.20;65.00;;;;;;4978555;28;19914;-64
2022/02/28 03:11:36;;;;;;;;;;;13.20;65.00;;;;;;4977352;28;19910;-64
2022/02/28 03:14:01;;;;;;;;;;;13.20;64.90;;;;;;4978443;28;20123;-64
2022/02/28 03:16:27;;;;;;;;;;;13.20;64.70;;;;;;4977483;28;19937;-64
2022/02/28 03:18:53;;;;;;;;;;;13.20;64.80;;;;;;4978409;28;19916;-65
2022/02/28 03:21:18;;;;;;;;;;;13.20;65.00;;;;;;4977206;28;19906;-64
2022/02/28 03:23:44;;;;;;;;;;;13.20;65.10;;;;;;4978324;28;19925;-65
2022/02/28 03:26:09;;;;;;;;;;;13.20;65.10;;;;;;4978342;28;19980;-64
2022/02/28 03:28:35;;;;;;;;;;;13.20;65.10;;;;;;4978251;28;19950;-65
2022/02/28 03:31:01;;;;;;;;;;;13.20;65.00;;;;;;4978321;28;19913;-64
2022/02/28 03:33:26;;;;;;;;;;;13.10;65.00;;;;;;4978221;28;20159;-64
2022/02/28 03:35:52;;;;;;;;;;;13.10;65.10;;;;;;4978234;28;19945;-65
2022/02/28 03:38:18;;;;;;;;;;;13.20;65.00;;;;;;4978308;28;19918;-64
2022/02/28 03:40:44;;;;;;;;;;;13.10;65.00;;;;;;4978084;28;19943;-64
2022/02/28 03:43:11;;;;;;;;;;;13.10;65.00;;;;;;4978101;28;20233;-64
2022/02/28 03:45:36;;;;;;;;;;;13.10;65.00;;;;;;4977971;28;19910;-65
2022/02/28 03:48:02;;;;;;;;;;;13.20;64.80;;;;;;4978493;28;19918;-64
2022/02/28 03:50:28;;;;;;;;;;;13.20;64.80;;;;;;4981548;28;19917;-63
2022/02/28 03:52:54;;;;;;;;;;;13.20;65.00;;;;;;4981508;28;19902;-64
2022/02/28 03:55:22;;;;;;;;;;;13.20;64.90;;;;;;4981467;28;20468;-64
2022/02/28 03:57:48;;;;;;;;;;;13.20;65.00;;;;;;4981418;28;19981;-63
2022/02/28 04:00:14;;;;;;;;;;;13.20;64.80;;;;;;4981428;28;20122;-65
2022/02/28 04:02:40;;;;;;;;;;;13.20;65.00;;;;;;4981311;28;19910;-64
2022/02/28 04:05:06;;;;;;;;;;;13.20;65.50;;;;;;4981273;28;20429;-63
2022/02/28 04:07:32;;;;;;;;;;;13.20;65.00;;;;;;4981168;28;19966;-64
2022/02/28 04:09:58;;;;;;;;;;;13.20;64.80;;;;;;4981198;28;19941;-63
2022/02/28 04:12:24;;;;;;;;;;;13.10;65.00;;;;;;4981196;28;19902;-64
2022/02/28 04:14:49;;;;;;;;;;;13.10;65.00;;;;;;4981198;28;20138;-64
2022/02/28 04:17:15;;;;;;;;;;;13.20;64.90;;;;;;4981088;28;19910;-63
2022/02/28 04:19:41;;;;;;;;;;;13.20;65.00;;;;;;4981035;28;19947;-64
2022/02/28 04:22:07;;;;;;;;;;;13.10;65.00;;;;;;4980992;28;20251;-64
2022/02/28 04:24:32;;;;;;;;;;;13.10;65.10;;;;;;4980917;28;20019;-64
2022/02/28 04:26:58;;;;;;;;;;;13.10;65.00;;;;;;4980995;28;19916;-64
2022/02/28 04:29:24;;;;;;;;;;;13.10;65.00;;;;;;4980897;28;19906;-64
2022/02/28 04:31:49;;;;;;;;;;;13.10;65.00;;;;;;4980852;28;19902;-64
2022/02/28 04:34:15;;;;;;;;;;;13.20;64.80;;;;;;4980828;28;20273;-64
2022/02/28 04:36:41;;;;;;;;;;;13.10;64.80;;;;;;4980776;28;19903;-64
2022/02/28 04:39:07;;;;;;;;;;;13.20;64.50;;;;;;4980750;28;19921;-63
2022/02/28 04:41:32;;;;;;;;;;;13.10;64.80;;;;;;4980738;28;19910;-64
2022/02/28 04:43:58;;;;;;;;;;;13.10;65.00;;;;;;4980700;28;19983;-63
2022/02/28 04:46:23;;;;;;;;;;;13.10;64.80;;;;;;4980077;28;19914;-64
2022/02/28 04:48:49;;;;;;;;;;;13.20;64.60;;;;;;4979417;28;19906;-63
2022/02/28 04:51:15;;;;;;;;;;;13.20;64.60;;;;;;4979413;28;19910;-63
2022/02/28 04:53:40;;;;;;;;;;;13.20;64.50;;;;;;4979352;28;19925;-64
2022/02/28 04:56:06;;;;;;;;;;;13.20;64.30;;;;;;4979379;28;19918;-63
2022/02/28 04:58:31;;;;;;;;;;;13.20;64.60;;;;;;4979110;28;19910;-64
2022/02/28 05:00:57;;;;;;;;;;;13.20;64.80;;;;;;4979125;28;19973;-64
2022/02/28 05:03:23;;;;;;;;;;;13.10;64.80;;;;;;4979245;28;20158;-64
2022/02/28 05:05:49;;;;;;;;;;;13.10;64.70;;;;;;4979195;28;19917;-64
2022/02/28 05:08:14;;;;;;;;;;;13.00;65.00;;;;;;4979139;28;19963;-63
2022/02/28 05:10:40;;;;;;;;;;;13.00;65.10;;;;;;4979096;28;20222;-63
2022/02/28 05:13:06;;;;;;;;;;;13.00;65.10;;;;;;4979027;28;19910;-63
2022/02/28 05:15:31;;;;;;;;;;;13.10;65.00;;;;;;4979013;28;19951;-63
2022/02/28 05:17:57;;;;;;;;;;;13.20;64.60;;;;;;4978959;28;19993;-63
2022/02/28 05:20:23;;;;;;;;;;;13.20;64.30;;;;;;4978953;28;19910;-64
2022/02/28 05:22:48;;;;;;;;;;;13.30;64.20;;;;;;4978855;28;19955;-63
2022/02/28 05:25:14;;;;;;;;;;;13.20;64.30;;;;;;4978940;28;19902;-63
2022/02/28 05:27:41;;;;;;;;;;;13.20;65.30;;;;;;4979088;28;20247;-64
2022/02/28 05:30:07;;;;;;;;;;;13.10;64.60;;;;;;4978850;28;19910;-64
2022/02/28 05:32:34;;;;;;;;;;;13.10;64.80;;;;;;4978812;28;19945;-64
2022/02/28 05:34:59;;;;;;;;;;;13.10;64.50;;;;;;4978709;28;20182;-63
2022/02/28 05:37:25;;;;;;;;;;;13.20;64.20;;;;;;4978688;28;19931;-64
2022/02/28 05:39:51;;;;;;;;;;;13.10;64.60;;;;;;4978659;28;19908;-63
2022/02/28 05:42:16;;;;;;;;;;;13.10;64.60;;;;;;4978712;28;19910;-64
2022/02/28 05:44:42;;;;;;;;;;;13.10;64.70;;;;;;4978638;28;19949;-63
2022/02/28 05:47:08;;;;;;;;;;;13.20;64.40;;;;;;4933908;28;1321793;-64
2022/02/28 05:49:33;;;;;;;;;;;13.20;64.20;;;;;;4979746;28;20210;-64
2022/02/28 05:51:59;;;;;;;;;;;13.20;64.10;;;;;;4979540;28;19969;-64
2022/02/28 05:54:24;;;;;;;;;;;13.20;64.00;;;;;;4979521;28;19914;-64
2022/02/28 05:56:50;;;;;;;;;;;13.20;63.80;;;;;;4979440;28;19984;-64
2022/02/28 05:59:15;;;;;;;;;;;13.30;63.80;;;;;;4979443;28;19902;-63
2022/02/28 06:01:41;;;;;;;;;;;13.10;64.10;;;;;;4979389;28;20202;-64
2022/02/28 06:04:07;;;;;;;;;;;13.00;64.40;;;;;;4979353;28;20164;-64
2022/02/28 06:06:32;;;;;;;;;;;13.00;64.80;;;;;;4979303;28;20463;-64
2022/02/28 06:08:58;;;;;;;;;;;13.10;64.40;;;;;;4979256;28;19985;-63
2022/02/28 06:11:25;;;;;;;;;;;13.10;64.10;;;;;;4978362;28;20214;-64
2022/02/28 06:13:51;;;;;;;;;;;13.20;64.20;;;;;;4979210;28;19913;-64
2022/02/28 06:16:16;;;;;;;;;;;13.20;64.00;;;;;;4979219;28;19997;-64
2022/02/28 06:18:42;;;;;;;;;;;13.20;64.10;;;;;;4979147;28;20480;-63
2022/02/28 06:21:07;;;;;;;;;;;13.10;64.10;;;;;;4979189;28;20291;-64
2022/02/28 06:23:33;;;;;;;;;;;13.10;64.10;;;;;;4979059;28;19910;-64
2022/02/28 06:25:59;;;;;;;;;;;13.20;64.20;;;;;;4979030;28;19939;-64
2022/02/28 06:28:25;;;;;;;;;;;13.10;64.60;;;;;;4978919;28;20168;-64
2022/02/28 06:30:51;;;;;;;;;;;13.10;64.40;;;;;;4978975;28;19978;-64
2022/02/28 06:33:16;;;;;;;;;;;13.10;65.10;;;;;;4978933;28;19910;-64
2022/02/28 06:35:44;;;;;;;;;;;13.10;64.40;;;;;;4978868;28;19955;-64
2022/02/28 06:38:11;;;;;;;;;;;13.00;64.50;;;;;;4978843;28;19910;-64
2022/02/28 06:40:38;;;;;;;;;;;13.00;64.50;;;;;;4978745;28;19934;-64
2022/02/28 06:43:04;;;;;;;;;;;12.90;64.70;;;;;;4978689;28;19917;-64
2022/02/28 06:45:29;;;;;;;;;;;12.90;64.90;;;;;;4978734;28;19902;-65
2022/02/28 06:47:55;;;;;;;;;;;12.90;64.80;;;;;;4978457;28;19922;-65
2022/02/28 06:50:21;;;;;;;;;;;12.90;64.80;;;;;;4978666;28;19973;-64
2022/02/28 06:52:47;;;;;;;;;;;12.90;64.90;;;;;;4977464;28;19910;-64
2022/02/28 06:55:13;;;;;;;;;;;12.90;65.00;;;;;;4978626;28;20225;-64
2022/02/28 06:57:38;;;;;;;;;;;12.90;65.10;;;;;;4978530;28;19959;-65
2022/02/28 07:00:04;;;;;;;;;;;12.90;65.00;;;;;;4978562;28;19902;-64
2022/02/28 07:02:30;;;;;;;;;;;12.90;64.90;;;;;;4977193;28;19911;-64
2022/02/28 07:04:55;;;;;;;;;;;13.00;64.90;;;;;;4978485;28;19909;-64
2022/02/28 07:07:21;;;;;;;;;;;12.90;65.10;;;;;;4978372;28;19910;-64
2022/02/28 07:09:47;;;;;;;;;;;12.90;65.00;;;;;;4978363;28;19968;-64
2022/02/28 07:12:13;;;;;;;;;;;12.90;64.90;;;;;;4978341;28;19917;-64
2022/02/28 07:14:40;;;;;;;;;;;12.90;65.00;;;;;;4978282;28;20015;-64
2022/02/28 07:17:06;;;;;;;;;;;13.00;64.90;;;;;;4978277;28;20242;-64
2022/02/28 07:19:33;;;;;;;;;;;12.90;64.90;;;;;;4978246;28;20258;-64
2022/02/28 07:21:59;;;;;;;;;;;12.90;64.90;;;;;;4978145;28;20352;-64
2022/02/28 07:24:25;;;;;;;;;;;12.90;64.90;;;;;;4978207;28;20279;-64
2022/02/28 07:26:50;;;;;;;;;;;12.90;64.90;;;;;;4978051;28;19902;-64
2022/02/28 07:29:16;;;;;;;;;;;12.90;64.90;;;;;;4976866;28;19914;-63
2022/02/28 07:31:42;;;;;;;;;;;12.90;64.90;;;;;;4978107;28;19902;-64
2022/02/28 07:34:08;;;;;;;;;;;12.90;64.90;;;;;;4978082;28;19917;-63
2022/02/28 07:36:34;;;;;;;;;;;12.90;64.90;;;;;;4978062;28;19903;-64
2022/02/28 07:39:00;;;;;;;;;;;13.00;65.00;;;;;;4977932;28;19937;-64
2022/02/28 07:41:26;;;;;;;;;;;12.90;64.90;;;;;;4977981;28;20218;-64
2022/02/28 07:43:51;;;;;;;;;;;13.00;65.00;;;;;;4977948;28;19956;-64
2022/02/28 07:46:17;;;;;;;;;;;12.90;64.90;;;;;;4977756;28;19922;-64
2022/02/28 07:48:42;;;;;;;;;;;13.00;64.90;;;;;;4977744;28;19921;-64
2022/02/28 07:51:08;;;;;;;;;;;12.90;64.90;;;;;;4977919;28;20278;-64
2022/02/28 07:53:34;;;;;;;;;;;12.90;64.90;;;;;;4977770;28;19910;-64
2022/02/28 07:55:59;;;;;;;;;;;12.90;64.90;;;;;;4977801;28;19910;-65
2022/02/28 07:58:25;;;;;;;;;;;12.90;64.90;;;;;;4977802;28;19910;-64
2022/02/28 08:00:50;;;;;;;;;;;12.90;64.90;;;;;;4977764;28;19993;-64
2022/02/28 08:03:16;;;;;;;;;;;12.90;65.00;;;;;;4977767;28;20108;-63
2022/02/28 08:05:42;;;;;;;;;;;12.90;64.90;;;;;;4977716;28;19977;-65
2022/02/28 08:08:08;;;;;;;;;;;13.00;65.00;;;;;;4977640;28;20091;-64
2022/02/28 08:10:33;;;;;;;;;;;12.90;64.90;;;;;;4977623;28;19952;-64
2022/02/28 08:12:59;;;;;;;;;;;12.90;64.90;;;;;;4977608;28;19902;-65
2022/02/28 08:15:25;;;;;;;;;;;13.00;65.00;;;;;;4977646;28;20133;-64
2022/02/28 08:17:50;;;;;;;;;;;12.90;64.90;;;;;;4977535;28;19910;-64
2022/02/28 08:20:16;;;;;;;;;;;13.00;65.00;;;;;;4977496;28;19916;-64
2022/02/28 08:22:41;;;;;;;;;;;13.00;64.90;;;;;;4977475;28;19989;-64
2022/02/28 08:25:07;;;;;;;;;;;13.00;65.00;;;;;;4977503;28;20110;-64
2022/02/28 08:27:33;;;;;;;;;;;13.00;65.60;;;;;;4977418;28;19910;-64
2022/02/28 08:29:59;;;;;;;;;;;13.00;64.90;;;;;;4977255;28;19906;-65
2022/02/28 08:32:25;;;;;;;;;;;13.00;65.00;;;;;;4977381;28;19910;-64
2022/02/28 08:34:51;;;;;;;;;;;13.00;64.90;;;;;;4978959;28;19910;-64
2022/02/28 08:37:16;;;;;;;;;;;13.00;64.80;;;;;;4980566;28;19910;-64
2022/02/28 08:39:42;;;;;;;;;;;13.10;64.50;;;;;;4980607;28;19955;-63
2022/02/28 08:42:08;;;;;;;;;;;13.10;64.40;;;;;;4980613;28;20130;-64
2022/02/28 08:44:33;;;;;;;;;;;13.20;64.20;;;;;;4980491;28;19942;-64
2022/02/28 08:46:59;;;;;;;;;;;13.10;64.20;;;;;;4980362;28;20151;-64
2022/02/28 08:49:25;;;;;;;;;;;13.20;64.20;;;;;;4980413;28;19914;-64
2022/02/28 08:51:54;;;;;;;;;;;13.20;64.20;;;;;;4980333;28;19989;-64
2022/02/28 08:54:20;;;;;;;;;;;13.10;64.20;;;;;;4980393;28;19910;-64
2022/02/28 08:56:45;;;;;;;;;;;13.10;64.30;;;;;;4980616;28;19909;-64
2022/02/28 08:59:11;;;;;;;;;;;13.10;64.40;;;;;;4980307;28;20109;-63
2022/02/28 09:01:37;;;;;;;;;;;13.10;64.40;;;;;;4980307;28;19910;-64
2022/02/28 09:04:02;;;;;;;;;;;13.10;64.30;;;;;;4980156;28;19910;-64
2022/02/28 09:06:28;;;;;;;;;;;13.20;64.20;;;;;;4980209;28;20107;-64
2022/02/28 09:08:53;;;;;;;;;;;13.30;64.00;;;;;;4980084;28;19964;-64
2022/02/28 09:11:21;;;;;;;;;;;13.60;63.20;;;;;;4980106;28;19988;-64
2022/02/28 09:13:47;;;;;;;;;;;13.80;62.50;;;;;;4980096;28;19902;-64
2022/02/28 09:16:12;;;;;;;;;;;14.00;62.00;;;;;;4979991;28;20114;-64
2022/02/28 09:18:38;;;;;;;;;;;13.90;61.90;;;;;;4980045;28;19910;-64
2022/02/28 09:21:04;;;;;;;;;;;14.00;61.80;;;;;;4979947;28;19909;-64
2022/02/28 09:23:29;;;;;;;;;;;13.80;62.20;;;;;;4979871;28;20004;-64
2022/02/28 09:25:55;;;;;;;;;;;13.70;62.70;;;;;;4979910;28;19910;-64
2022/02/28 09:28:23;;;;;;;;;;;13.60;62.90;;;;;;4979797;28;20315;-64
2022/02/28 09:30:48;;;;;;;;;;;13.60;63.10;;;;;;4979833;28;19945;-64
2022/02/28 09:33:14;;;;;;;;;;;13.60;63.00;;;;;;4979773;28;19902;-64
2022/02/28 09:35:39;;;;;;;;;;;13.60;62.90;;;;;;4979684;28;19938;-64
2022/02/28 09:38:05;;;;;;;;;;;13.50;63.10;;;;;;4979735;28;19952;-64
2022/02/28 09:40:31;;;;;;;;;;;13.50;63.30;;;;;;4979666;28;19910;-64
2022/02/28 09:43:01;;;;;;;;;;;13.50;63.40;;;;;;4979678;28;19901;-64
2022/02/28 09:45:27;;;;;;;;;;;13.40;63.50;;;;;;4978656;28;19910;-64
2022/02/28 09:47:57;;;;;;;;;;;13.40;63.60;;;;;;4979071;28;19922;-64
2022/02/28 09:50:23;;;;;;;;;;;13.40;63.70;;;;;;4979615;28;20230;-64
2022/02/28 09:52:49;;;;;;;;;;;13.40;63.70;;;;;;4979455;28;20181;-64
2022/02/28 09:55:15;;;;;;;;;;;13.40;63.70;;;;;;4979530;28;19910;-64
2022/02/28 09:57:48;;;;;;;;;;;13.40;63.80;;;;;;4979438;28;19906;-64
2022/02/28 10:00:21;;;;;;;;;;;13.40;63.80;;;;;;4979230;28;20001;-65
2022/02/28 10:02:48;;;;;;;;;;;13.30;63.80;;;;;;4979307;28;19910;-64
2022/02/28 10:05:14;;;;;;;;;;;13.30;63.80;;;;;;4979344;28;20002;-63
2022/02/28 10:07:53;;;;;;;;;;;13.30;63.80;;;;;;4979276;28;20213;-64
2022/02/28 10:10:18;;;;;;;;;;;13.30;63.90;;;;;;4979260;28;19920;-64
2022/02/28 10:12:44;;;;;;;;;;;13.40;63.80;;;;;;4979268;28;20159;-64
2022/02/28 10:15:18;;;;;;;;;;;13.40;63.80;;;;;;4979154;28;20228;-64
2022/02/28 10:17:48;;;;;;;;;;;13.40;63.80;;;;;;4979196;28;20125;-64
2022/02/28 10:20:34;;;;;;;;;;;13.40;63.70;;;;;;4979049;28;19941;-64
2022/02/28 10:23:11;;;;;;;;;;;13.50;63.60;;;;;;4978944;28;19981;-64
2022/02/28 10:25:38;;;;;;;;;;;13.50;63.40;;;;;;4979072;28;19910;-64
2022/02/28 10:28:37;;;;;;;;;;;13.50;63.40;;;;;;4978841;28;19973;-63
2022/02/28 10:31:05;;;;;;;;;;;13.60;63.40;;;;;;5010663;28;19910;-64
2022/02/28 10:33:35;;;;;;;;;;;13.60;63.30;;;;;;4978850;28;19955;-63
2022/02/28 10:36:10;;;;;;;;;;;13.70;63.20;;;;;;4978828;28;19910;-63
2022/02/28 10:38:37;;;;;;;;;;;13.80;63.10;;;;;;4978840;28;19917;-64
2022/02/28 10:41:08;;;;;;;;;;;13.90;63.00;;;;;;4978770;28;19910;-64
2022/02/28 10:43:34;;;;;;;;;;;13.90;62.90;;;;;;4978813;28;20240;-64
2022/02/28 10:46:12;;;;;;;;;;;13.90;62.90;;;;;;4978560;28;19969;-64
2022/02/28 10:48:38;;;;;;;;;;;13.80;62.90;;;;;;4978641;28;19968;-64
2022/02/28 10:51:12;;;;;;;;;;;13.90;63.60;;;;;;4978599;28;20292;-64
2022/02/28 10:53:38;;;;;;;;;;;13.90;63.00;;;;;;4978675;28;19948;-64
2022/02/28 10:56:03;;;;;;;;;;;13.90;62.90;;;;;;4978531;28;19910;-64
2022/02/28 10:58:30;;;;;;;;;;;13.90;62.90;;;;;;4978063;28;19903;-64
2022/02/28 11:00:56;;;;;;;;;;;13.90;62.90;;;;;;4978538;28;19910;-65
2022/02/28 11:03:24;;;;;;;;;;;13.90;62.90;;;;;;4978499;28;19902;-64
2022/02/28 11:05:56;;;;;;;;;;;14.00;62.90;;;;;;4978391;28;19965;-64
2022/02/28 11:08:22;;;;;;;;;;;14.00;62.80;;;;;;4978270;28;19937;-64
2022/02/28 11:10:49;;;;;;;;;;;14.00;63.00;;;;;;4978419;28;19917;-64
2022/02/28 11:13:15;;;;;;;;;;;13.90;63.10;;;;;;4978297;28;19910;-64
2022/02/28 11:15:41;;;;;;;;;;;13.90;63.10;;;;;;4978222;28;20161;-64
2022/02/28 11:18:10;;;;;;;;;;;13.80;63.20;;;;;;4978242;28;19917;-64
2022/02/28 11:20:35;;;;;;;;;;;13.80;63.20;;;;;;4978246;28;19910;-64
2022/02/28 11:23:04;;;;;;;;;;;13.80;63.30;;;;;;4978176;28;19910;-64
2022/02/28 11:25:29;;;;;;;;;;;13.80;63.40;;;;;;4978144;28;20212;-64
2022/02/28 11:27:57;;;;;;;;;;;13.70;63.30;;;;;;4978061;28;20199;-64
2022/02/28 11:30:23;;;;;;;;;;;13.80;63.40;;;;;;4976797;28;19976;-66
2022/02/28 11:33:02;;;;;;;;;;;13.70;63.30;;;;;;4978055;28;19932;-64
2022/02/28 11:35:37;;;;;;;;;;;13.80;63.40;;;;;;4978074;28;19910;-64
2022/02/28 11:38:06;;;;;;;;;;;13.80;63.40;;;;;;4977997;28;19948;-63
2022/02/28 11:40:32;;;;;;;;;;;13.70;63.30;;;;;;4977969;28;20110;-64
2022/02/28 11:43:17;;;;;;;;;;;13.70;63.30;;;;;;4978014;28;20362;-63
2022/02/28 11:46:00;;;;;;;;;;;13.70;63.40;;;;;;4977737;28;20202;-64
2022/02/28 11:48:27;;;;;;;;;;;13.70;63.60;;;;;;4977900;28;20115;-64
2022/02/28 11:50:57;;;;;;;;;;;13.60;63.60;;;;;;4977842;28;19910;-64
2022/02/28 11:53:35;;;;;;;;;;;13.60;63.60;;;;;;4977793;28;19916;-64
2022/02/28 11:56:02;;;;;;;;;;;13.50;63.70;;;;;;4977789;28;20091;-65
2022/02/28 11:58:27;;;;;;;;;;;13.50;63.80;;;;;;4977729;28;19968;-64
2022/02/28 12:01:08;;;;;;;;;;;13.50;63.90;;;;;;4977684;28;19914;-64
2022/02/28 12:03:34;;;;;;;;;;;13.50;63.90;;;;;;4977668;28;20206;-63
2022/02/28 12:06:03;;;;;;;;;;;13.50;63.90;;;;;;4977631;28;19943;-65
2022/02/28 12:08:34;;;;;;;;;;;13.50;64.60;;;;;;4977572;28;19921;-64
2022/02/28 12:11:15;;;;;;;;;;;13.50;63.90;;;;;;4980946;28;19917;-64
2022/02/28 12:13:41;;;;;;;;;;;13.50;63.90;;;;;;4980994;28;19909;-64
2022/02/28 12:16:07;;;;;;;;;;;13.50;63.90;;;;;;4980986;28;19910;-65
2022/02/28 12:18:33;;;;;;;;;;;13.50;63.80;;;;;;4980850;28;19972;-64
2022/02/28 12:21:06;;;;;;;;;;;13.50;63.80;;;;;;4980900;28;19910;-64
2022/02/28 12:23:43;;;;;;;;;;;13.50;63.80;;;;;;4980860;28;20283;-65
2022/02/28 12:26:10;;;;;;;;;;;13.50;63.80;;;;;;4980846;28;19910;-64
2022/02/28 12:28:35;;;;;;;;;;;13.50;63.80;;;;;;4980750;28;20125;-64
2022/02/28 12:31:03;;;;;;;;;;;13.50;63.70;;;;;;4980783;28;19937;-64
2022/02/28 12:33:35;;;;;;;;;;;13.50;63.80;;;;;;4980733;28;20246;-64
2022/02/28 12:36:03;;;;;;;;;;;13.50;63.70;;;;;;4980693;28;19917;-64
2022/02/28 12:38:34;;;;;;;;;;;13.50;63.60;;;;;;4980694;28;20209;-64
2022/02/28 12:41:05;;;;;;;;;;;13.50;63.60;;;;;;4980559;28;19916;-63
2022/02/28 12:43:32;;;;;;;;;;;13.50;63.70;;;;;;4980600;28;20277;-64
2022/02/28 12:45:59;;;;;;;;;;;13.50;63.80;;;;;;4980385;28;19918;-64
2022/02/28 12:48:26;;;;;;;;;;;13.50;63.70;;;;;;4980474;28;19937;-64
2022/02/28 12:50:53;;;;;;;;;;;13.50;63.70;;;;;;4980483;28;20444;-64
2022/02/28 12:53:19;;;;;;;;;;;13.50;63.70;;;;;;4980397;28;19917;-64
2022/02/28 12:56:04;;;;;;;;;;;13.50;63.70;;;;;;4980464;28;19902;-64
2022/02/28 12:58:31;;;;;;;;;;;13.50;63.70;;;;;;4980336;28;19926;-64
2022/02/28 13:01:11;;;;;;;;;;;13.50;63.70;;;;;;4980295;28;19910;-64
2022/02/28 13:03:37;;;;;;;;;;;13.50;63.70;;;;;;4980300;28;19917;-65
2022/02/28 13:06:03;;;;;;;;;;;13.60;63.60;;;;;;4980204;28;19921;-64
2022/02/28 13:08:29;;;;;;;;;;;13.70;63.50;;;;;;4980138;28;19941;-64
2022/02/28 13:11:07;;;;;;;;;;;13.70;63.40;;;;;;4980135;28;19910;-64
2022/02/28 13:13:33;;;;;;;;;;;13.70;63.30;;;;;;4980121;28;19910;-64
2022/02/28 13:15:59;;;;;;;;;;;13.80;63.30;;;;;;4979034;28;20102;-64
2022/02/28 13:18:26;;;;;;;;;;;13.80;63.30;;;;;;4980006;28;19902;-64
2022/02/28 13:20:51;;;;;;;;;;;13.80;63.20;;;;;;4979792;28;19948;-65
2022/02/28 13:23:19;;;;;;;;;;;13.80;63.20;;;;;;4979958;28;19910;-65
2022/02/28 13:25:49;;;;;;;;;;;13.80;63.20;;;;;;4979943;28;20210;-64
2022/02/28 13:28:14;;;;;;;;;;;13.80;63.20;;;;;;4979843;28;19914;-64
2022/02/28 13:30:40;;;;;;;;;;;13.80;63.30;;;;;;4979861;28;20102;-64
2022/02/28 13:33:06;;;;;;;;;;;13.80;63.30;;;;;;4979815;28;20367;-64
2022/02/28 13:35:31;;;;;;;;;;;13.80;63.20;;;;;;4978498;28;20016;-64
2022/02/28 13:37:59;;;;;;;;;;;13.70;63.20;;;;;;4979778;28;19910;-64
2022/02/28 13:40:25;;;;;;;;;;;13.70;63.30;;;;;;4979698;28;19921;-64
2022/02/28 13:42:54;;;;;;;;;;;13.70;63.40;;;;;;4979718;28;20320;-64
2022/02/28 13:45:22;;;;;;;;;;;13.70;63.40;;;;;;4979684;28;19997;-65
2022/02/28 13:47:49;;;;;;;;;;;13.60;63.40;;;;;;4979486;28;19929;-64
2022/02/28 13:50:15;;;;;;;;;;;13.60;63.40;;;;;;4979606;28;19945;-65
2022/02/28 13:52:41;;;;;;;;;;;13.60;63.50;;;;;;4979528;28;19956;-64
2022/02/28 13:55:14;;;;;;;;;;;13.60;63.60;;;;;;4979559;28;20219;-64
2022/02/28 13:57:42;;;;;;;;;;;13.60;63.60;;;;;;4979510;28;19917;-64
2022/02/28 14:00:15;;;;;;;;;;;13.60;63.60;;;;;;4979480;28;19910;-65
2022/02/28 14:02:55;;;;;;;;;;;13.60;63.60;;;;;;4979413;28;19917;-66
2022/02/28 14:05:26;;;;;;;;;;;13.60;63.60;;;;;;4979391;28;19910;-65
2022/02/28 14:07:59;;;;;;;;;;;13.60;63.60;;;;;;4979297;28;19942;-63
2022/02/28 14:10:31;;;;;;;;;;;13.60;63.60;;;;;;4979271;28;19946;-64
2022/02/28 14:12:57;;;;;;;;;;;13.50;63.60;;;;;;4979267;28;20199;-65
2022/02/28 14:15:24;;;;;;;;;;;13.50;63.60;;;;;;4979121;28;19917;-65